createdAt,value
2023-01-04T00:00:13.051Z,100891.44
2023-01-04T00:02:42.437Z,100878.97
2023-01-04T00:05:10.928Z,100881.00
2023-01-04T00:07:38.857Z,100880.13
2023-01-04T00:10:07.186Z,100870.34
2023-01-04T00:12:36.700Z,100864.13
2023-01-04T00:15:05.114Z,100869.66
2023-01-04T00:17:33.342Z,100867.97
2023-01-04T00:20:02.738Z,100874.72
2023-01-04T00:22:34.777Z,100865.53
2023-01-04T00:25:02.916Z,100858.06
2023-01-04T00:27:30.826Z,100878.59
2023-01-04T00:29:58.744Z,100838.50
2023-01-04T00:32:26.704Z,100853.88
2023-01-04T00:34:54.639Z,100842.81
2023-01-04T00:37:24.422Z,100852.47
2023-01-04T00:39:52.359Z,100872.75
2023-01-04T00:42:20.368Z,100873.75
2023-01-04T00:44:48.343Z,100866.06
2023-01-04T00:47:16.239Z,100863.22
2023-01-04T00:49:44.265Z,100849.38
2023-01-04T00:52:12.404Z,100848.09
2023-01-04T00:54:41.738Z,100880.97
2023-01-04T00:57:09.629Z,100859.03
2023-01-04T00:59:37.539Z,100832.72
2023-01-04T01:02:05.605Z,100843.59
2023-01-04T01:04:33.705Z,100864.69
2023-01-04T01:07:01.611Z,100873.91
2023-01-04T01:09:29.535Z,100850.22
2023-01-04T01:11:58.901Z,100870.34
2023-01-04T01:14:27.034Z,100840.31
2023-01-04T01:16:58.526Z,100851.94
2023-01-04T01:19:27.813Z,100834.63
2023-01-04T01:21:57.273Z,100849.94
2023-01-04T01:24:25.373Z,100800.66
2023-01-04T01:26:53.628Z,100833.22
2023-01-04T01:29:23.000Z,100820.09
2023-01-04T01:31:51.162Z,100855.94
2023-01-04T01:34:19.226Z,100858.31
2023-01-04T01:36:47.273Z,100837.50
2023-01-04T01:39:15.210Z,100834.91
2023-01-04T01:41:43.431Z,100834.25
2023-01-04T01:44:53.147Z,100820.22
2023-01-04T01:47:26.370Z,100819.38
2023-01-04T01:49:55.379Z,100852.41
2023-01-04T01:52:27.973Z,100846.56
2023-01-04T01:55:00.222Z,100856.94
2023-01-04T01:57:32.318Z,100860.03
2023-01-04T02:00:05.310Z,100826.44
2023-01-04T02:02:35.105Z,100874.03
2023-01-04T02:05:04.165Z,100837.94
2023-01-04T02:07:32.733Z,100854.63
2023-01-04T02:10:01.264Z,100844.41
2023-01-04T02:12:29.408Z,100852.19
2023-01-04T02:14:57.402Z,100858.69
2023-01-04T02:17:39.902Z,100859.56
2023-01-04T02:20:24.086Z,100842.09
2023-01-04T02:23:37.164Z,100832.72
2023-01-04T02:26:41.573Z,100862.31
2023-01-04T02:29:44.599Z,100864.28
2023-01-04T02:32:25.583Z,100855.94
2023-01-04T02:35:01.405Z,100855.09
2023-01-04T02:37:40.165Z,100874.88
2023-01-04T02:40:18.486Z,100868.53
2023-01-04T02:43:15.873Z,100889.47
2023-01-04T02:45:49.781Z,100887.06
2023-01-04T02:48:36.970Z,100895.41
2023-01-04T02:51:05.112Z,100896.53
2023-01-04T02:53:38.997Z,100882.91
2023-01-04T02:56:16.746Z,100902.88
2023-01-04T02:59:10.973Z,100874.38
2023-01-04T03:02:06.779Z,100874.78
2023-01-04T03:05:16.030Z,100903.56
2023-01-04T03:07:53.587Z,100900.47
2023-01-04T03:10:27.404Z,100905.72
2023-01-04T03:13:02.668Z,100882.19
2023-01-04T03:15:35.547Z,100884.63
2023-01-04T03:18:11.424Z,100886.47
2023-01-04T03:20:40.843Z,100895.53
2023-01-04T03:23:37.209Z,100879.69
2023-01-04T03:26:28.760Z,100888.75
2023-01-04T03:29:17.159Z,100893.44
2023-01-04T03:32:06.875Z,100893.59
2023-01-04T03:34:52.748Z,100882.97
2023-01-04T03:37:27.128Z,100876.19
2023-01-04T03:40:22.776Z,100870.78
2023-01-04T03:43:14.905Z,100882.41
2023-01-04T03:46:05.445Z,100893.88
2023-01-04T03:48:42.344Z,100899.81
2023-01-04T03:51:16.799Z,100896.69
2023-01-04T03:53:56.379Z,100908.19
2023-01-04T03:56:26.468Z,100916.81
2023-01-04T03:58:55.896Z,100903.06
2023-01-04T04:01:26.817Z,100895.84
2023-01-04T04:04:12.319Z,100906.59
2023-01-04T04:06:57.850Z,100912.97
2023-01-04T04:09:28.405Z,100952.47
2023-01-04T04:11:56.609Z,100917.66
2023-01-04T04:14:24.599Z,100940.34
2023-01-04T04:16:52.823Z,100968.22
2023-01-04T04:19:22.152Z,100940.75
2023-01-04T04:21:50.055Z,100963.25
2023-01-04T04:24:20.256Z,100966.09
2023-01-04T04:26:50.458Z,100935.66
2023-01-04T04:29:20.822Z,100946.25
2023-01-04T04:31:51.925Z,100951.63
2023-01-04T04:34:20.171Z,100942.88
2023-01-04T04:36:48.137Z,100963.13
2023-01-04T04:39:16.230Z,100935.81
2023-01-04T04:41:43.134Z,100947.09
2023-01-04T04:44:14.561Z,100925.03
2023-01-04T04:46:46.182Z,100921.63
2023-01-04T04:49:14.902Z,100925.31
2023-01-04T04:51:44.153Z,100920.78
2023-01-04T04:54:17.249Z,100943.88
2023-01-04T04:56:45.227Z,100940.88
2023-01-04T04:59:14.660Z,100932.78
2023-01-04T05:01:42.667Z,100944.28
2023-01-04T05:04:16.521Z,100959.31
2023-01-04T05:06:44.745Z,100949.66
2023-01-04T05:09:13.133Z,100940.59
2023-01-04T05:12:03.899Z,100952.19
2023-01-04T05:14:33.389Z,100955.72
2023-01-04T05:17:01.429Z,100920.06
2023-01-04T05:19:29.552Z,100945.56
2023-01-04T05:21:57.597Z,100957.75
2023-01-04T05:24:25.683Z,100960.72
2023-01-04T05:26:53.723Z,100951.34
2023-01-04T05:29:39.149Z,100967.25
2023-01-04T05:32:08.705Z,100966.09
2023-01-04T05:34:36.685Z,100979.09
2023-01-04T05:37:04.556Z,100975.41
2023-01-04T05:39:32.603Z,100978.25
2023-01-04T05:42:18.211Z,100979.09
2023-01-04T05:44:46.396Z,100979.25
2023-01-04T05:47:15.713Z,100979.09
2023-01-04T05:49:44.310Z,100992.28
2023-01-04T05:52:12.525Z,100999.19
2023-01-04T05:54:40.476Z,100996.81
2023-01-04T05:57:08.678Z,101013.38
2023-01-04T05:59:41.555Z,100994.97
2023-01-04T06:02:17.265Z,101010.97
2023-01-04T06:04:45.556Z,101008.28
2023-01-04T06:07:13.471Z,101013.06
2023-01-04T06:09:41.617Z,101024.16
2023-01-04T06:12:10.351Z,101032.06
2023-01-04T06:14:38.545Z,101034.91
2023-01-04T06:17:06.979Z,101026.41
2023-01-04T06:19:37.020Z,101030.22
2023-01-04T06:22:05.080Z,101029.81
2023-01-04T06:24:34.181Z,101032.06
2023-01-04T06:27:02.549Z,101029.53
2023-01-04T06:29:30.747Z,101034.91
2023-01-04T06:31:58.868Z,101061.81
2023-01-04T06:34:30.933Z,101053.03
2023-01-04T06:37:01.299Z,101060.25
2023-01-04T06:39:29.493Z,101075.16
2023-01-04T06:42:05.397Z,101070.34
2023-01-04T06:44:34.776Z,101080.34
2023-01-04T06:47:02.883Z,101067.22
2023-01-04T06:49:30.873Z,101068.75
2023-01-04T06:52:00.394Z,101073.72
2023-01-04T06:54:28.323Z,101053.34
2023-01-04T06:56:56.346Z,101071.03
2023-01-04T06:59:24.333Z,101064.09
2023-01-04T07:01:52.598Z,101064.94
2023-01-04T07:04:20.889Z,101063.78
2023-01-04T07:06:48.929Z,101047.81
2023-01-04T07:09:18.677Z,101042.97
2023-01-04T07:11:46.906Z,101052.75
2023-01-04T07:14:15.067Z,101041.66
2023-01-04T07:16:43.344Z,101073.56
2023-01-04T07:19:11.411Z,101067.91
2023-01-04T07:21:39.414Z,101077.97
2023-01-04T07:24:07.556Z,101088.75
2023-01-04T07:26:37.767Z,101080.09
2023-01-04T07:29:18.299Z,101084.91
2023-01-04T07:31:48.791Z,101078.53
2023-01-04T07:34:18.473Z,101071.44
2023-01-04T07:36:47.607Z,101079.81
2023-01-04T07:39:16.018Z,101092.28
2023-01-04T07:41:46.234Z,101100.06
2023-01-04T07:44:14.368Z,101103.34
2023-01-04T07:46:43.832Z,101091.28
2023-01-04T07:49:17.385Z,101098.63
2023-01-04T07:51:46.619Z,101114.50
2023-01-04T07:54:15.094Z,101103.06
2023-01-04T07:56:43.190Z,101109.13
2023-01-04T07:59:14.236Z,101119.47
2023-01-04T08:01:42.619Z,101116.34
2023-01-04T08:04:12.127Z,101107.28
2023-01-04T08:06:40.936Z,101109.13
2023-01-04T08:09:09.164Z,101124.28
2023-01-04T08:11:37.244Z,101134.06
2023-01-04T08:14:05.353Z,101128.69
2023-01-04T08:16:36.816Z,101129.53
2023-01-04T08:19:06.886Z,101146.97
2023-01-04T08:21:36.982Z,101137.72
2023-01-04T08:24:05.858Z,101147.53
2023-01-04T08:26:34.109Z,101167.66
2023-01-04T08:29:02.237Z,101153.34
2023-01-04T08:31:31.811Z,101160.25
2023-01-04T08:34:04.769Z,101165.78
2023-01-04T08:36:34.328Z,101166.66
2023-01-04T08:39:06.311Z,101208.97
2023-01-04T08:44:38.583Z,101199.38
2023-01-04T08:47:06.889Z,101187.59
2023-01-04T08:49:36.211Z,101180.78
2023-01-04T08:52:04.505Z,101193.13
2023-01-04T08:54:32.498Z,101217.06
2023-01-04T08:57:00.587Z,101217.63
2023-01-04T08:59:28.718Z,101219.31
2023-01-04T09:02:04.525Z,101217.78
2023-01-04T09:04:33.651Z,101228.81
2023-01-04T09:07:03.110Z,101218.91
2023-01-04T09:09:31.333Z,101228.41
2023-01-04T09:11:59.852Z,101236.78
2023-01-04T09:14:27.951Z,101226.72
2023-01-04T09:16:56.240Z,101235.47
2023-01-04T09:19:24.327Z,101240.84
2023-01-04T09:21:52.500Z,101228.41
2023-01-04T09:24:21.976Z,101252.94
2023-01-04T09:26:49.897Z,101246.81
2023-01-04T09:29:18.008Z,101251.94
2023-01-04T09:31:46.041Z,101249.25
2023-01-04T09:34:16.477Z,101257.31
2023-01-04T09:36:45.343Z,101246.97
2023-01-04T09:39:21.147Z,101243.13
2023-01-04T09:41:57.275Z,101255.63
2023-01-04T09:45:03.052Z,101253.91
2023-01-04T09:47:29.752Z,101249.66
2023-01-04T09:50:01.322Z,101241.44
2023-01-04T09:52:42.780Z,101258.75
2023-01-04T09:55:37.008Z,101267.25
2023-01-04T09:58:15.371Z,101261.84
2023-01-04T10:00:46.731Z,101272.63
2023-01-04T10:03:19.946Z,101272.31
2023-01-04T10:05:48.155Z,101283.09
2023-01-04T10:08:18.599Z,101301.50
2023-01-04T10:10:55.419Z,101297.81
2023-01-04T10:13:53.243Z,101287.50
2023-01-04T10:17:10.910Z,101300.97
2023-01-04T10:22:33.141Z,101303.78
2023-01-04T10:25:19.089Z,101303.78
2023-01-04T10:27:54.566Z,101295.13
2023-01-04T10:30:31.775Z,101285.09
2023-01-04T10:33:09.087Z,101306.03
2023-01-04T10:35:41.503Z,101299.81
2023-01-04T10:38:18.054Z,101296.28
2023-01-04T10:40:48.639Z,101279.56
2023-01-04T10:43:23.126Z,101307.75
2023-01-04T10:45:59.481Z,101321.94
2023-01-04T10:48:38.655Z,101327.31
2023-01-04T10:51:10.580Z,101349.72
2023-01-04T10:53:45.505Z,101338.09
2023-01-04T10:56:24.082Z,101356.22
2023-01-04T10:59:00.696Z,101340.06
2023-01-04T11:01:36.322Z,101329.28
2023-01-04T11:04:10.499Z,101338.94
2023-01-04T11:06:45.946Z,101352.56
2023-01-04T11:09:24.717Z,101326.75
2023-01-04T11:11:56.573Z,101312.88
2023-01-04T11:14:25.931Z,101319.09
2023-01-04T11:17:00.117Z,101306.63
2023-01-04T11:19:29.179Z,101320.38
2023-01-04T11:22:02.265Z,101314.56
2023-01-04T11:24:33.505Z,101302.66
2023-01-04T11:27:06.662Z,101313.16
2023-01-04T11:29:42.397Z,101300.94
2023-01-04T11:32:22.431Z,101294.03
2023-01-04T11:34:53.562Z,101303.78
2023-01-04T11:37:30.644Z,101295.00
2023-01-04T11:40:22.103Z,101296.00
2023-01-04T11:42:51.812Z,101317.00
2023-01-04T11:45:23.785Z,101311.72
2023-01-04T11:47:55.652Z,101315.41
2023-01-04T11:50:42.694Z,101313.88
2023-01-04T11:53:32.540Z,101328.88
2023-01-04T11:56:16.707Z,101317.69
2023-01-04T11:58:46.904Z,101316.41
2023-01-04T12:01:23.920Z,101302.78
2023-01-04T12:03:53.433Z,101319.94
2023-01-04T12:06:26.271Z,101321.09
2023-01-04T12:08:54.569Z,101307.47
2023-01-04T12:11:30.505Z,101331.56
2023-01-04T12:14:00.705Z,101311.16
2023-01-04T12:16:43.954Z,101317.41
2023-01-04T12:19:16.917Z,101323.38
2023-01-04T12:21:48.810Z,101325.06
2023-01-04T12:24:20.152Z,101331.56
2023-01-04T12:26:49.068Z,101338.78
2023-01-04T12:29:44.195Z,101344.47
2023-01-04T12:32:41.680Z,101338.09
2023-01-04T12:35:46.831Z,101342.75
2023-01-04T12:38:55.001Z,101364.44
2023-01-04T12:41:24.230Z,101348.84
2023-01-04T12:43:53.375Z,101360.06
2023-01-04T12:47:01.459Z,101328.59
2023-01-04T12:49:52.715Z,101342.06
2023-01-04T12:53:19.929Z,101338.22
2023-01-04T12:56:00.669Z,101337.97
2023-01-04T12:59:24.793Z,101337.69
2023-01-04T13:02:18.924Z,101330.16
2023-01-04T13:04:47.349Z,101333.56
2023-01-04T13:07:20.826Z,101340.50
2023-01-04T13:09:54.401Z,101340.38
2023-01-04T13:12:43.070Z,101342.34
2023-01-04T13:15:22.722Z,101338.66
2023-01-04T13:17:51.975Z,101335.53
2023-01-04T13:20:23.624Z,101337.53
2023-01-04T13:22:54.668Z,101336.84
2023-01-04T13:25:24.745Z,101352.25
2023-01-04T13:28:02.440Z,101349.44
2023-01-04T13:30:32.811Z,101343.19
2023-01-04T13:33:25.840Z,101347.47
2023-01-04T13:36:03.185Z,101356.53
2023-01-04T13:38:32.937Z,101350.31
2023-01-04T13:41:00.946Z,101352.00
2023-01-04T13:43:54.359Z,101329.31
2023-01-04T13:46:24.421Z,101342.78
2023-01-04T13:48:55.713Z,101326.91
2023-01-04T13:51:35.834Z,101353.69
2023-01-04T13:54:06.930Z,101326.59
2023-01-04T13:56:36.351Z,101337.25
2023-01-04T13:59:06.005Z,101328.44
2023-01-04T14:01:37.685Z,101330.84
2023-01-04T14:04:08.343Z,101337.53
2023-01-04T14:06:42.688Z,101354.13
2023-01-04T14:09:16.885Z,101356.25
2023-01-04T14:12:08.610Z,101364.75
2023-01-04T14:14:41.253Z,101373.25
2023-01-04T14:17:22.165Z,101355.41
2023-01-04T14:19:54.359Z,101356.25
2023-01-04T14:22:34.538Z,101350.00
2023-01-04T14:25:23.290Z,101350.84
2023-01-04T14:27:52.245Z,101353.97
2023-01-04T14:30:28.187Z,101370.88
2023-01-04T14:32:58.125Z,101372.41
2023-01-04T14:35:27.914Z,101380.38
2023-01-04T14:37:57.375Z,101376.53
2023-01-04T14:40:27.357Z,101364.22
2023-01-04T14:42:55.969Z,101366.47
2023-01-04T14:45:27.245Z,101381.75
2023-01-04T14:47:55.368Z,101367.00
2023-01-04T14:50:23.513Z,101393.38
2023-01-04T14:52:52.499Z,101362.31
2023-01-04T14:55:20.817Z,101381.75
2023-01-04T14:57:48.726Z,101363.88
2023-01-04T15:00:20.160Z,101359.91
2023-01-04T15:02:52.034Z,101369.53
2023-01-04T15:05:20.784Z,101381.16
2023-01-04T15:07:49.273Z,101357.03
2023-01-04T15:10:23.031Z,101373.50
2023-01-04T15:12:51.452Z,101363.44
2023-01-04T15:15:19.740Z,101372.66
2023-01-04T15:17:49.545Z,101386.22
2023-01-04T15:20:17.688Z,101395.88
2023-01-04T15:22:45.920Z,101414.88
2023-01-04T15:25:14.046Z,101415.41
2023-01-04T15:27:43.017Z,101392.00
2023-01-04T15:30:13.052Z,101397.28
2023-01-04T15:32:41.438Z,101392.56
2023-01-04T15:35:11.428Z,101386.19
2023-01-04T15:37:39.859Z,101416.50
2023-01-04T15:40:08.857Z,101404.75
2023-01-04T15:42:55.528Z,101416.75
2023-01-04T15:45:24.229Z,101418.97
2023-01-04T15:47:54.836Z,101448.72
2023-01-04T15:50:24.515Z,101448.13
2023-01-04T15:52:52.480Z,101452.06
2023-01-04T15:55:20.495Z,101433.63
2023-01-04T15:57:48.512Z,101443.22
2023-01-04T16:00:17.534Z,101471.97
2023-01-04T16:02:45.712Z,101449.16
2023-01-04T16:05:15.809Z,101445.63
2023-01-04T16:07:45.829Z,101457.88
2023-01-04T16:10:14.001Z,101468.63
2023-01-04T16:12:45.981Z,101461.81
2023-01-04T16:15:17.717Z,101434.06
2023-01-04T16:17:46.705Z,101454.03
2023-01-04T16:20:17.036Z,101453.03
2023-01-04T16:22:49.367Z,101471.72
2023-01-04T16:25:18.855Z,101455.56
2023-01-04T16:27:46.831Z,101466.69
2023-01-04T16:30:24.473Z,101490.16
2023-01-04T16:33:09.695Z,101468.38
2023-01-04T16:35:37.980Z,101471.19
2023-01-04T16:38:07.739Z,101480.84
2023-01-04T16:40:35.954Z,101483.06
2023-01-04T16:43:04.143Z,101498.22
2023-01-04T16:45:32.163Z,101504.84
2023-01-04T16:48:01.367Z,101510.97
2023-01-04T16:50:29.858Z,101507.88
2023-01-04T16:52:57.844Z,101525.09
2023-01-04T16:55:28.036Z,101524.13
2023-01-04T16:57:56.268Z,101523.16
2023-01-04T17:00:25.258Z,101514.66
2023-01-04T17:02:53.398Z,101532.19
2023-01-04T17:05:21.655Z,101518.50
2023-01-04T17:07:49.591Z,101502.34
2023-01-04T17:10:17.688Z,101515.41
2023-01-04T17:12:48.534Z,101508.91
2023-01-04T17:18:06.263Z,101516.25
2023-01-04T17:20:34.334Z,101518.94
2023-01-04T17:23:02.350Z,101517.97
2023-01-04T17:25:30.794Z,101512.72
2023-01-04T17:28:00.395Z,101520.94
2023-01-04T17:30:28.580Z,101510.41
2023-01-04T17:32:56.764Z,101529.97
2023-01-04T17:35:24.826Z,101523.28
2023-01-04T17:37:52.894Z,101520.47
2023-01-04T17:40:23.415Z,101542.25
2023-01-04T17:42:51.821Z,101548.22
2023-01-04T17:45:21.681Z,101547.75
2023-01-04T17:47:49.809Z,101542.25
2023-01-04T17:50:18.310Z,101540.53
2023-01-04T17:52:46.711Z,101539.09
2023-01-04T17:55:15.152Z,101556.22
2023-01-04T18:00:14.717Z,101551.78
2023-01-04T18:02:44.743Z,101557.44
2023-01-04T18:05:12.844Z,101541.03
2023-01-04T18:07:41.055Z,101544.31
2023-01-04T18:10:21.427Z,101547.69
2023-01-04T18:13:01.261Z,101558.16
2023-01-04T18:15:29.386Z,101555.75
2023-01-04T18:17:59.048Z,101550.09
2023-01-04T18:20:27.595Z,101561.13
2023-01-04T18:22:56.170Z,101553.44
2023-01-04T18:25:24.856Z,101566.75
2023-01-04T18:27:53.953Z,101560.84
2023-01-04T18:30:22.257Z,101560.25
2023-01-04T18:32:50.492Z,101556.22
2023-01-04T18:35:20.174Z,101565.97
2023-01-04T18:37:48.169Z,101568.81
2023-01-04T18:40:16.738Z,101566.81
2023-01-04T18:42:49.651Z,101577.59
2023-01-04T18:45:18.210Z,101578.44
2023-01-04T18:47:47.595Z,101565.38
2023-01-04T18:50:16.865Z,101579.28
2023-01-04T18:52:46.356Z,101585.50
2023-01-04T18:55:14.479Z,101586.75
2023-01-04T18:57:42.640Z,101587.34
2023-01-04T19:00:20.614Z,101593.00
2023-01-04T19:02:48.696Z,101601.94
2023-01-04T19:05:19.037Z,101590.91
2023-01-04T19:07:50.431Z,101590.91
2023-01-04T19:10:18.892Z,101604.22
2023-01-04T19:15:30.139Z,101603.50
2023-01-04T19:17:58.369Z,101617.69
2023-01-04T19:20:28.490Z,101614.25
2023-01-04T19:22:57.938Z,101610.94
2023-01-04T19:25:28.472Z,101607.31
2023-01-04T19:27:58.373Z,101608.00
2023-01-04T19:30:26.424Z,101619.75
2023-01-04T19:32:54.614Z,101612.94
2023-01-04T19:35:22.674Z,101610.25
2023-01-04T19:37:50.939Z,101616.59
2023-01-04T19:40:20.686Z,101614.63
2023-01-04T19:42:50.102Z,101621.72
2023-01-04T19:45:22.669Z,101604.63
2023-01-04T19:47:51.519Z,101608.53
2023-01-04T19:50:20.096Z,101598.50
2023-01-04T19:52:48.260Z,101602.16
2023-01-04T19:55:16.785Z,101605.25
2023-01-04T19:57:46.406Z,101614.91
2023-01-04T20:00:16.893Z,101614.91
2023-01-04T20:02:45.071Z,101594.34
2023-01-04T20:05:13.328Z,101597.31
2023-01-04T20:07:41.430Z,101599.53
2023-01-04T20:10:14.290Z,101625.66
2023-01-04T20:12:43.094Z,101623.25
2023-01-04T20:15:14.606Z,101623.25
2023-01-04T20:17:42.831Z,101638.91
2023-01-04T20:20:11.325Z,101621.94
2023-01-04T20:22:39.537Z,101630.38
2023-01-04T20:25:08.902Z,101628.63
2023-01-04T20:27:37.235Z,101622.53
2023-01-04T20:30:06.761Z,101630.84
2023-01-04T20:32:38.900Z,101635.25
2023-01-04T20:35:08.114Z,101623.91
2023-01-04T20:37:36.209Z,101630.75
2023-01-04T20:40:04.619Z,101645.50
2023-01-04T20:42:50.568Z,101641.72
2023-01-04T20:45:18.896Z,101637.22
2023-01-04T20:47:48.392Z,101655.03
2023-01-04T20:50:17.364Z,101649.66
2023-01-04T20:52:45.993Z,101630.00
2023-01-04T20:55:17.573Z,101644.91
2023-01-04T20:57:45.892Z,101638.66
2023-01-04T21:00:15.574Z,101638.81
2023-01-04T21:02:44.149Z,101644.28
2023-01-04T21:05:14.379Z,101637.44
2023-01-04T21:07:42.905Z,101654.81
2023-01-04T21:10:13.892Z,101645.28
2023-01-04T21:12:42.408Z,101636.47
2023-01-04T21:15:12.715Z,101642.59
2023-01-04T21:17:51.441Z,101652.50
2023-01-04T21:20:24.734Z,101662.13
2023-01-04T21:22:56.886Z,101642.81
2023-01-04T21:25:29.565Z,101634.88
2023-01-04T21:28:00.844Z,101632.06
2023-01-04T21:30:32.020Z,101652.00
2023-01-04T21:33:02.040Z,101641.72
2023-01-04T21:35:32.624Z,101640.03
2023-01-04T21:38:03.995Z,101652.72
2023-01-04T21:40:33.228Z,101649.94
2023-01-04T21:43:07.851Z,101669.09
2023-01-04T21:45:40.807Z,101660.56
2023-01-04T21:48:12.996Z,101666.03
2023-01-04T21:50:43.341Z,101675.94
2023-01-04T21:53:11.653Z,101667.16
2023-01-04T21:55:42.182Z,101676.06
2023-01-04T21:58:10.328Z,101669.34
2023-01-04T22:00:40.821Z,101681.94
2023-01-04T22:03:09.276Z,101664.81
2023-01-04T22:05:38.297Z,101672.50
2023-01-04T22:08:08.720Z,101676.53
2023-01-04T22:10:37.128Z,101679.50
2023-01-04T22:13:05.187Z,101677.28
2023-01-04T22:15:33.475Z,101677.00
2023-01-04T22:18:02.027Z,101683.13
2023-01-04T22:20:32.786Z,101675.78
2023-01-04T22:23:01.708Z,101680.94
2023-01-04T22:25:31.241Z,101687.03
2023-01-04T22:28:13.615Z,101700.75
2023-01-04T22:30:42.892Z,101682.88
2023-01-04T22:33:11.053Z,101692.19
2023-01-04T22:35:40.374Z,101675.19
2023-01-04T22:38:08.791Z,101683.38
2023-01-04T22:40:42.119Z,101680.06
2023-01-04T22:43:10.837Z,101681.31
2023-01-04T22:45:39.202Z,101670.31
2023-01-04T22:48:08.305Z,101687.78
2023-01-04T22:50:43.024Z,101686.09
2023-01-04T22:53:11.344Z,101675.34
2023-01-04T22:58:31.176Z,101693.16
2023-01-04T23:01:00.526Z,101689.13
2023-01-04T23:03:28.710Z,101696.09
2023-01-04T23:05:57.622Z,101685.94
2023-01-04T23:08:26.615Z,101694.88
2023-01-04T23:10:56.378Z,101695.34
2023-01-04T23:13:25.054Z,101688.38
2023-01-04T23:15:53.555Z,101690.84
2023-01-04T23:18:21.646Z,101686.53
2023-01-04T23:20:54.546Z,101686.31
2023-01-04T23:23:22.820Z,101695.34
2023-01-04T23:25:51.310Z,101683.84
2023-01-04T23:28:23.617Z,101700.75
2023-01-04T23:30:51.893Z,101700.75
2023-01-04T23:33:20.163Z,101688.72
2023-01-04T23:35:48.539Z,101691.41
2023-01-04T23:38:16.773Z,101696.69
2023-01-04T23:40:48.886Z,101705.84
2023-01-04T23:43:16.889Z,101704.84
2023-01-04T23:45:46.347Z,101694.50
2023-01-04T23:48:14.826Z,101705.75
2023-01-04T23:50:43.366Z,101699.63
2023-01-04T23:53:12.852Z,101709.00
2023-01-04T23:55:42.898Z,101715.13
2023-01-04T23:58:11.106Z,101724.06
